sensor_id;sensor_type;location;lat;lon;timestamp;temperature;humidity
59301;DHT22;45073;52.740;6.784;2023-12-14T00:01:14;6.20;99.90
59301;DHT22;45073;52.740;6.784;2023-12-14T00:03:42;6.20;99.90
59301;DHT22;45073;52.740;6.784;2023-12-14T00:06:11;6.20;99.90
59301;DHT22;45073;52.740;6.784;2023-12-14T00:08:36;6.20;99.90
59301;DHT22;45073;52.740;6.784;2023-12-14T00:11:09;6.20;99.90
59301;DHT22;45073;52.740;6.784;2023-12-14T00:13:35;6.20;99.90
59301;DHT22;45073;52.740;6.784;2023-12-14T00:16:00;6.20;99.90
59301;DHT22;45073;52.740;6.784;2023-12-14T00:18:26;6.20;99.90
59301;DHT22;45073;52.740;6.784;2023-12-14T00:20:52;6.20;99.90
59301;DHT22;45073;52.740;6.784;2023-12-14T00:23:28;6.20;99.90
59301;DHT22;45073;52.740;6.784;2023-12-14T00:25:53;6.20;99.90
59301;DHT22;45073;52.740;6.784;2023-12-14T00:28:19;6.20;99.90
59301;DHT22;45073;52.740;6.784;2023-12-14T00:30:44;6.20;99.90
59301;DHT22;45073;52.740;6.784;2023-12-14T00:33:10;6.20;99.90
59301;DHT22;45073;52.740;6.784;2023-12-14T00:35:36;6.20;99.90
59301;DHT22;45073;52.740;6.784;2023-12-14T00:38:01;6.20;99.90
59301;DHT22;45073;52.740;6.784;2023-12-14T00:40:27;6.20;99.90
59301;DHT22;45073;52.740;6.784;2023-12-14T00:42:53;6.20;99.90
59301;DHT22;45073;52.740;6.784;2023-12-14T00:45:18;6.20;99.90
59301;DHT22;45073;52.740;6.784;2023-12-14T00:47:44;6.10;99.90
59301;DHT22;45073;52.740;6.784;2023-12-14T00:50:10;6.20;99.90
59301;DHT22;45073;52.740;6.784;2023-12-14T00:52:35;6.20;99.90
59301;DHT22;45073;52.740;6.784;2023-12-14T00:55:01;6.20;99.90
59301;DHT22;45073;52.740;6.784;2023-12-14T00:57:27;6.20;99.90
59301;DHT22;45073;52.740;6.784;2023-12-14T00:59:52;6.20;99.90
59301;DHT22;45073;52.740;6.784;2023-12-14T01:02:18;6.10;99.90
59301;DHT22;45073;52.740;6.784;2023-12-14T01:04:43;6.10;99.90
59301;DHT22;45073;52.740;6.784;2023-12-14T01:07:09;6.10;99.90
59301;DHT22;45073;52.740;6.784;2023-12-14T01:09:35;6.10;99.90
59301;DHT22;45073;52.740;6.784;2023-12-14T01:12:00;6.10;99.90
59301;DHT22;45073;52.740;6.784;2023-12-14T01:14:26;6.10;99.90
59301;DHT22;45073;52.740;6.784;2023-12-14T01:16:52;6.10;99.90
59301;DHT22;45073;52.740;6.784;2023-12-14T01:19:18;6.10;99.90
59301;DHT22;45073;52.740;6.784;2023-12-14T01:21:43;6.10;99.90
59301;DHT22;45073;52.740;6.784;2023-12-14T01:24:09;6.10;99.90
59301;DHT22;45073;52.740;6.784;2023-12-14T01:26:34;6.10;99.90
59301;DHT22;45073;52.740;6.784;2023-12-14T01:29:00;6.10;99.90
59301;DHT22;45073;52.740;6.784;2023-12-14T01:31:26;6.10;99.90
59301;DHT22;45073;52.740;6.784;2023-12-14T01:33:52;6.10;99.90
59301;DHT22;45073;52.740;6.784;2023-12-14T01:36:21;6.10;99.90
59301;DHT22;45073;52.740;6.784;2023-12-14T01:38:47;6.10;99.90
59301;DHT22;45073;52.740;6.784;2023-12-14T01:41:13;6.10;99.90
59301;DHT22;45073;52.740;6.784;2023-12-14T01:43:38;6.10;99.90
59301;DHT22;45073;52.740;6.784;2023-12-14T01:46:04;6.10;99.90
59301;DHT22;45073;52.740;6.784;2023-12-14T01:48:30;6.10;99.90
59301;DHT22;45073;52.740;6.784;2023-12-14T01:50:55;6.10;99.90
59301;DHT22;45073;52.740;6.784;2023-12-14T01:53:21;6.10;99.90
59301;DHT22;45073;52.740;6.784;2023-12-14T01:55:47;6.10;99.90
59301;DHT22;45073;52.740;6.784;2023-12-14T01:58:13;6.10;99.90
59301;DHT22;45073;52.740;6.784;2023-12-14T02:03:10;6.10;99.90
59301;DHT22;45073;52.740;6.784;2023-12-14T02:05:36;6.10;99.90
59301;DHT22;45073;52.740;6.784;2023-12-14T02:08:02;6.10;99.90
59301;DHT22;45073;52.740;6.784;2023-12-14T02:10:27;6.10;99.90
59301;DHT22;45073;52.740;6.784;2023-12-14T02:12:53;6.10;99.90
59301;DHT22;45073;52.740;6.784;2023-12-14T02:15:19;6.10;99.90
59301;DHT22;45073;52.740;6.784;2023-12-14T02:17:45;6.10;99.90
59301;DHT22;45073;52.740;6.784;2023-12-14T02:20:11;6.10;99.90
59301;DHT22;45073;52.740;6.784;2023-12-14T02:22:53;6.10;99.90
59301;DHT22;45073;52.740;6.784;2023-12-14T02:25:20;6.00;99.90
59301;DHT22;45073;52.740;6.784;2023-12-14T02:27:46;6.10;99.90
59301;DHT22;45073;52.740;6.784;2023-12-14T02:30:13;6.10;99.90
59301;DHT22;45073;52.740;6.784;2023-12-14T02:32:39;6.10;99.90
59301;DHT22;45073;52.740;6.784;2023-12-14T02:35:06;6.00;99.90
59301;DHT22;45073;52.740;6.784;2023-12-14T02:37:33;6.00;99.90
59301;DHT22;45073;52.740;6.784;2023-12-14T02:39:59;6.00;99.90
59301;DHT22;45073;52.740;6.784;2023-12-14T02:42:26;6.00;99.90
59301;DHT22;45073;52.740;6.784;2023-12-14T02:44:53;6.00;99.90
59301;DHT22;45073;52.740;6.784;2023-12-14T02:47:19;6.00;99.90
59301;DHT22;45073;52.740;6.784;2023-12-14T02:49:44;6.00;99.90
59301;DHT22;45073;52.740;6.784;2023-12-14T02:52:10;6.00;99.90
59301;DHT22;45073;52.740;6.784;2023-12-14T02:54:39;6.00;99.90
59301;DHT22;45073;52.740;6.784;2023-12-14T02:57:05;6.00;99.90
59301;DHT22;45073;52.740;6.784;2023-12-14T02:59:30;5.90;99.90
59301;DHT22;45073;52.740;6.784;2023-12-14T03:01:56;5.90;99.90
59301;DHT22;45073;52.740;6.784;2023-12-14T03:04:21;5.90;99.90
59301;DHT22;45073;52.740;6.784;2023-12-14T03:06:47;6.00;99.90
59301;DHT22;45073;52.740;6.784;2023-12-14T03:09:13;5.90;99.90
59301;DHT22;45073;52.740;6.784;2023-12-14T03:11:38;5.90;99.90
59301;DHT22;45073;52.740;6.784;2023-12-14T03:14:04;6.00;99.90
59301;DHT22;45073;52.740;6.784;2023-12-14T03:16:29;5.90;99.90
59301;DHT22;45073;52.740;6.784;2023-12-14T03:18:55;5.90;99.90
59301;DHT22;45073;52.740;6.784;2023-12-14T03:21:22;5.90;99.90
59301;DHT22;45073;52.740;6.784;2023-12-14T03:23:49;5.90;99.90
59301;DHT22;45073;52.740;6.784;2023-12-14T03:26:15;5.90;99.90
59301;DHT22;45073;52.740;6.784;2023-12-14T03:28:40;6.00;99.90
59301;DHT22;45073;52.740;6.784;2023-12-14T03:31:06;5.90;99.90
59301;DHT22;45073;52.740;6.784;2023-12-14T03:33:31;5.90;99.90
59301;DHT22;45073;52.740;6.784;2023-12-14T03:35:57;5.90;99.90
59301;DHT22;45073;52.740;6.784;2023-12-14T03:38:23;5.90;99.90
59301;DHT22;45073;52.740;6.784;2023-12-14T03:40:48;5.90;99.90
59301;DHT22;45073;52.740;6.784;2023-12-14T03:43:14;5.90;99.90
59301;DHT22;45073;52.740;6.784;2023-12-14T03:45:39;5.90;99.90
59301;DHT22;45073;52.740;6.784;2023-12-14T03:48:05;5.90;99.90
59301;DHT22;45073;52.740;6.784;2023-12-14T03:50:31;5.90;99.90
59301;DHT22;45073;52.740;6.784;2023-12-14T03:52:58;5.90;99.90
59301;DHT22;45073;52.740;6.784;2023-12-14T03:55:23;5.90;99.90
59301;DHT22;45073;52.740;6.784;2023-12-14T03:57:49;5.90;99.90
59301;DHT22;45073;52.740;6.784;2023-12-14T04:00:15;5.90;99.90
59301;DHT22;45073;52.740;6.784;2023-12-14T04:02:41;5.90;99.90
59301;DHT22;45073;52.740;6.784;2023-12-14T04:05:07;5.90;99.90
59301;DHT22;45073;52.740;6.784;2023-12-14T04:07:38;5.90;99.90
59301;DHT22;45073;52.740;6.784;2023-12-14T04:10:15;5.90;99.90
59301;DHT22;45073;52.740;6.784;2023-12-14T04:12:41;5.90;99.90
59301;DHT22;45073;52.740;6.784;2023-12-14T04:15:08;5.90;99.90
59301;DHT22;45073;52.740;6.784;2023-12-14T04:17:34;5.90;99.90
59301;DHT22;45073;52.740;6.784;2023-12-14T04:20:00;5.90;99.90
59301;DHT22;45073;52.740;6.784;2023-12-14T04:22:27;5.90;99.90
59301;DHT22;45073;52.740;6.784;2023-12-14T04:24:53;5.90;99.90
59301;DHT22;45073;52.740;6.784;2023-12-14T04:27:18;5.90;99.90
59301;DHT22;45073;52.740;6.784;2023-12-14T04:29:44;5.90;99.90
59301;DHT22;45073;52.740;6.784;2023-12-14T04:32:10;5.90;99.90
59301;DHT22;45073;52.740;6.784;2023-12-14T04:34:36;5.90;99.90
59301;DHT22;45073;52.740;6.784;2023-12-14T04:37:01;5.90;99.90
59301;DHT22;45073;52.740;6.784;2023-12-14T04:39:27;5.90;99.90
59301;DHT22;45073;52.740;6.784;2023-12-14T04:41:53;5.90;99.90
59301;DHT22;45073;52.740;6.784;2023-12-14T04:44:20;5.90;99.90
59301;DHT22;45073;52.740;6.784;2023-12-14T04:46:49;5.90;99.90
59301;DHT22;45073;52.740;6.784;2023-12-14T04:49:16;5.90;99.90
59301;DHT22;45073;52.740;6.784;2023-12-14T04:51:42;5.90;99.90
59301;DHT22;45073;52.740;6.784;2023-12-14T04:54:08;5.80;99.90
59301;DHT22;45073;52.740;6.784;2023-12-14T04:56:34;5.90;99.90
59301;DHT22;45073;52.740;6.784;2023-12-14T04:59:00;5.90;99.90
59301;DHT22;45073;52.740;6.784;2023-12-14T05:01:25;5.90;99.90
59301;DHT22;45073;52.740;6.784;2023-12-14T05:03:54;5.90;99.90
59301;DHT22;45073;52.740;6.784;2023-12-14T05:06:20;5.90;99.90
59301;DHT22;45073;52.740;6.784;2023-12-14T05:08:46;5.90;99.90
59301;DHT22;45073;52.740;6.784;2023-12-14T05:11:15;5.90;99.90
59301;DHT22;45073;52.740;6.784;2023-12-14T05:13:41;5.90;99.90
59301;DHT22;45073;52.740;6.784;2023-12-14T05:16:07;5.80;99.90
59301;DHT22;45073;52.740;6.784;2023-12-14T05:18:37;5.90;99.90
59301;DHT22;45073;52.740;6.784;2023-12-14T05:21:03;5.90;99.90
59301;DHT22;45073;52.740;6.784;2023-12-14T05:23:29;5.90;99.90
59301;DHT22;45073;52.740;6.784;2023-12-14T05:25:54;5.80;99.90
59301;DHT22;45073;52.740;6.784;2023-12-14T05:28:20;5.80;99.90
59301;DHT22;45073;52.740;6.784;2023-12-14T05:30:45;5.80;99.90
59301;DHT22;45073;52.740;6.784;2023-12-14T05:33:11;5.80;99.90
59301;DHT22;45073;52.740;6.784;2023-12-14T05:35:37;5.80;99.90
59301;DHT22;45073;52.740;6.784;2023-12-14T05:38:02;5.80;99.90
59301;DHT22;45073;52.740;6.784;2023-12-14T05:40:28;5.80;99.90
59301;DHT22;45073;52.740;6.784;2023-12-14T05:42:54;5.80;99.90
59301;DHT22;45073;52.740;6.784;2023-12-14T05:45:20;5.80;99.90
59301;DHT22;45073;52.740;6.784;2023-12-14T05:47:46;5.80;99.90
59301;DHT22;45073;52.740;6.784;2023-12-14T05:50:11;5.80;99.90
59301;DHT22;45073;52.740;6.784;2023-12-14T05:52:38;5.80;99.90
59301;DHT22;45073;52.740;6.784;2023-12-14T05:55:04;5.80;99.90
59301;DHT22;45073;52.740;6.784;2023-12-14T05:57:30;5.80;99.90
59301;DHT22;45073;52.740;6.784;2023-12-14T05:59:55;5.80;99.90
59301;DHT22;45073;52.740;6.784;2023-12-14T06:02:22;5.80;99.90
59301;DHT22;45073;52.740;6.784;2023-12-14T06:04:47;5.80;99.90
59301;DHT22;45073;52.740;6.784;2023-12-14T06:07:16;5.80;99.90
59301;DHT22;45073;52.740;6.784;2023-12-14T06:09:42;5.80;99.90
59301;DHT22;45073;52.740;6.784;2023-12-14T06:12:08;5.80;99.90
59301;DHT22;45073;52.740;6.784;2023-12-14T06:14:34;5.80;99.90
59301;DHT22;45073;52.740;6.784;2023-12-14T06:17:00;5.80;99.90
59301;DHT22;45073;52.740;6.784;2023-12-14T06:19:26;5.80;99.90
59301;DHT22;45073;52.740;6.784;2023-12-14T06:21:51;5.80;99.90
59301;DHT22;45073;52.740;6.784;2023-12-14T06:24:17;5.80;99.90
59301;DHT22;45073;52.740;6.784;2023-12-14T06:26:46;5.80;99.90
59301;DHT22;45073;52.740;6.784;2023-12-14T06:29:12;5.80;99.90
59301;DHT22;45073;52.740;6.784;2023-12-14T06:31:38;5.80;99.90
59301;DHT22;45073;52.740;6.784;2023-12-14T06:34:05;5.80;99.90
59301;DHT22;45073;52.740;6.784;2023-12-14T06:36:31;5.80;99.90
59301;DHT22;45073;52.740;6.784;2023-12-14T06:39:00;5.80;99.90
59301;DHT22;45073;52.740;6.784;2023-12-14T06:41:26;5.80;99.90
59301;DHT22;45073;52.740;6.784;2023-12-14T06:43:53;5.80;99.90
59301;DHT22;45073;52.740;6.784;2023-12-14T06:46:19;5.80;99.90
59301;DHT22;45073;52.740;6.784;2023-12-14T06:48:45;5.80;99.90
59301;DHT22;45073;52.740;6.784;2023-12-14T06:51:11;5.80;99.90
59301;DHT22;45073;52.740;6.784;2023-12-14T06:53:40;5.80;99.90
59301;DHT22;45073;52.740;6.784;2023-12-14T06:56:06;5.80;99.90
59301;DHT22;45073;52.740;6.784;2023-12-14T06:58:35;5.80;99.90
59301;DHT22;45073;52.740;6.784;2023-12-14T07:01:00;5.80;99.90
59301;DHT22;45073;52.740;6.784;2023-12-14T07:03:26;5.80;99.90
59301;DHT22;45073;52.740;6.784;2023-12-14T07:05:52;5.80;99.90
59301;DHT22;45073;52.740;6.784;2023-12-14T07:08:17;5.80;99.90
59301;DHT22;45073;52.740;6.784;2023-12-14T07:10:43;5.80;99.90
59301;DHT22;45073;52.740;6.784;2023-12-14T07:13:08;5.80;99.90
59301;DHT22;45073;52.740;6.784;2023-12-14T07:15:34;5.80;99.90
59301;DHT22;45073;52.740;6.784;2023-12-14T07:18:00;5.80;99.90
59301;DHT22;45073;52.740;6.784;2023-12-14T07:20:25;5.80;99.90
59301;DHT22;45073;52.740;6.784;2023-12-14T07:22:51;5.80;99.90
59301;DHT22;45073;52.740;6.784;2023-12-14T07:25:16;5.70;99.90
59301;DHT22;45073;52.740;6.784;2023-12-14T07:27:42;5.70;99.90
59301;DHT22;45073;52.740;6.784;2023-12-14T07:30:09;5.70;99.90
59301;DHT22;45073;52.740;6.784;2023-12-14T07:32:35;5.80;99.90
59301;DHT22;45073;52.740;6.784;2023-12-14T07:35:00;5.70;99.90
59301;DHT22;45073;52.740;6.784;2023-12-14T07:37:26;5.80;99.90
59301;DHT22;45073;52.740;6.784;2023-12-14T07:39:52;5.70;99.90
59301;DHT22;45073;52.740;6.784;2023-12-14T07:42:17;5.70;99.90
59301;DHT22;45073;52.740;6.784;2023-12-14T07:44:46;5.70;99.90
59301;DHT22;45073;52.740;6.784;2023-12-14T07:47:11;5.80;99.90
59301;DHT22;45073;52.740;6.784;2023-12-14T07:49:37;5.70;99.90
59301;DHT22;45073;52.740;6.784;2023-12-14T07:52:03;5.70;99.90
59301;DHT22;45073;52.740;6.784;2023-12-14T07:54:28;5.80;99.90
59301;DHT22;45073;52.740;6.784;2023-12-14T07:56:54;5.70;99.90
59301;DHT22;45073;52.740;6.784;2023-12-14T07:59:20;5.70;99.90
59301;DHT22;45073;52.740;6.784;2023-12-14T08:01:46;5.70;99.90
59301;DHT22;45073;52.740;6.784;2023-12-14T08:04:12;5.70;99.90
59301;DHT22;45073;52.740;6.784;2023-12-14T08:06:38;5.80;99.90
59301;DHT22;45073;52.740;6.784;2023-12-14T08:09:06;5.70;99.90
59301;DHT22;45073;52.740;6.784;2023-12-14T08:11:32;5.70;99.90
59301;DHT22;45073;52.740;6.784;2023-12-14T08:13:58;5.80;99.90
59301;DHT22;45073;52.740;6.784;2023-12-14T08:16:24;5.70;99.90
59301;DHT22;45073;52.740;6.784;2023-12-14T08:18:49;5.70;99.90
59301;DHT22;45073;52.740;6.784;2023-12-14T08:21:15;5.70;99.90
59301;DHT22;45073;52.740;6.784;2023-12-14T08:23:42;5.80;99.90
59301;DHT22;45073;52.740;6.784;2023-12-14T08:26:07;5.80;99.90
59301;DHT22;45073;52.740;6.784;2023-12-14T08:28:35;5.80;99.90
59301;DHT22;45073;52.740;6.784;2023-12-14T08:31:01;5.80;99.90
59301;DHT22;45073;52.740;6.784;2023-12-14T08:33:28;5.80;99.90
59301;DHT22;45073;52.740;6.784;2023-12-14T08:35:55;5.80;99.90
59301;DHT22;45073;52.740;6.784;2023-12-14T08:38:20;5.80;99.90
59301;DHT22;45073;52.740;6.784;2023-12-14T08:40:46;5.80;99.90
59301;DHT22;45073;52.740;6.784;2023-12-14T08:43:12;5.80;99.90
59301;DHT22;45073;52.740;6.784;2023-12-14T08:45:38;5.80;99.90
59301;DHT22;45073;52.740;6.784;2023-12-14T08:48:04;5.80;99.90
59301;DHT22;45073;52.740;6.784;2023-12-14T08:50:30;5.80;99.90
59301;DHT22;45073;52.740;6.784;2023-12-14T08:52:55;5.80;99.90
59301;DHT22;45073;52.740;6.784;2023-12-14T08:55:24;5.80;99.90
59301;DHT22;45073;52.740;6.784;2023-12-14T08:57:50;5.80;99.90
59301;DHT22;45073;52.740;6.784;2023-12-14T09:00:16;5.80;99.90
59301;DHT22;45073;52.740;6.784;2023-12-14T09:02:43;5.80;99.90
59301;DHT22;45073;52.740;6.784;2023-12-14T09:05:12;5.80;99.90
59301;DHT22;45073;52.740;6.784;2023-12-14T09:07:37;5.80;99.90
59301;DHT22;45073;52.740;6.784;2023-12-14T09:10:03;5.80;99.90
59301;DHT22;45073;52.740;6.784;2023-12-14T09:12:29;5.90;99.90
59301;DHT22;45073;52.740;6.784;2023-12-14T09:14:55;5.80;99.90
59301;DHT22;45073;52.740;6.784;2023-12-14T09:17:21;5.90;99.90
59301;DHT22;45073;52.740;6.784;2023-12-14T09:19:46;5.90;99.90
59301;DHT22;45073;52.740;6.784;2023-12-14T09:22:12;5.90;99.90
59301;DHT22;45073;52.740;6.784;2023-12-14T09:24:38;5.90;99.90
59301;DHT22;45073;52.740;6.784;2023-12-14T09:27:03;5.90;99.90
59301;DHT22;45073;52.740;6.784;2023-12-14T09:29:29;5.90;99.90
59301;DHT22;45073;52.740;6.784;2023-12-14T09:31:55;5.90;99.90
59301;DHT22;45073;52.740;6.784;2023-12-14T09:34:20;5.90;99.90
59301;DHT22;45073;52.740;6.784;2023-12-14T09:36:47;6.00;99.90
59301;DHT22;45073;52.740;6.784;2023-12-14T09:39:13;6.00;99.90
59301;DHT22;45073;52.740;6.784;2023-12-14T09:41:40;6.00;99.90
59301;DHT22;45073;52.740;6.784;2023-12-14T09:44:06;6.00;99.90
59301;DHT22;45073;52.740;6.784;2023-12-14T09:46:37;6.00;99.90
59301;DHT22;45073;52.740;6.784;2023-12-14T09:49:04;6.00;99.90
59301;DHT22;45073;52.740;6.784;2023-12-14T09:51:30;6.00;99.90
59301;DHT22;45073;52.740;6.784;2023-12-14T09:53:56;6.10;99.90
59301;DHT22;45073;52.740;6.784;2023-12-14T09:56:27;6.20;99.90
59301;DHT22;45073;52.740;6.784;2023-12-14T09:58:53;6.10;99.90
59301;DHT22;45073;52.740;6.784;2023-12-14T10:01:26;6.20;99.90
59301;DHT22;45073;52.740;6.784;2023-12-14T10:04:10;6.20;99.90
59301;DHT22;45073;52.740;6.784;2023-12-14T10:06:36;6.20;99.90
59301;DHT22;45073;52.740;6.784;2023-12-14T10:09:02;6.20;99.90
59301;DHT22;45073;52.740;6.784;2023-12-14T10:11:29;6.30;99.90
59301;DHT22;45073;52.740;6.784;2023-12-14T10:13:54;6.20;99.90
59301;DHT22;45073;52.740;6.784;2023-12-14T10:16:28;6.20;99.90
59301;DHT22;45073;52.740;6.784;2023-12-14T10:18:56;6.30;99.90
59301;DHT22;45073;52.740;6.784;2023-12-14T10:21:26;6.30;99.90
59301;DHT22;45073;52.740;6.784;2023-12-14T10:23:55;6.30;99.90
59301;DHT22;45073;52.740;6.784;2023-12-14T10:26:25;6.20;99.90
59301;DHT22;45073;52.740;6.784;2023-12-14T10:28:52;6.30;99.90
59301;DHT22;45073;52.740;6.784;2023-12-14T10:31:21;6.30;99.90
59301;DHT22;45073;52.740;6.784;2023-12-14T10:33:47;6.30;99.90
59301;DHT22;45073;52.740;6.784;2023-12-14T10:36:18;6.30;99.90
59301;DHT22;45073;52.740;6.784;2023-12-14T10:38:48;6.30;99.90
59301;DHT22;45073;52.740;6.784;2023-12-14T10:41:14;6.30;99.90
59301;DHT22;45073;52.740;6.784;2023-12-14T10:43:43;6.30;99.90
59301;DHT22;45073;52.740;6.784;2023-12-14T10:46:10;6.30;99.90
59301;DHT22;45073;52.740;6.784;2023-12-14T10:48:36;6.30;99.90
59301;DHT22;45073;52.740;6.784;2023-12-14T10:51:08;6.40;99.90
59301;DHT22;45073;52.740;6.784;2023-12-14T10:53:35;6.40;99.90
59301;DHT22;45073;52.740;6.784;2023-12-14T10:56:04;6.40;99.90
59301;DHT22;45073;52.740;6.784;2023-12-14T10:58:52;6.40;99.90
59301;DHT22;45073;52.740;6.784;2023-12-14T11:01:20;6.40;99.90
59301;DHT22;45073;52.740;6.784;2023-12-14T11:03:47;6.40;99.90
59301;DHT22;45073;52.740;6.784;2023-12-14T11:06:33;6.40;99.90
59301;DHT22;45073;52.740;6.784;2023-12-14T11:09:10;6.40;99.90
59301;DHT22;45073;52.740;6.784;2023-12-14T11:14:23;6.40;99.90
59301;DHT22;45073;52.740;6.784;2023-12-14T11:16:49;6.40;99.90
59301;DHT22;45073;52.740;6.784;2023-12-14T11:24:30;6.50;99.90
59301;DHT22;45073;52.740;6.784;2023-12-14T11:26:55;6.50;99.90
59301;DHT22;45073;52.740;6.784;2023-12-14T11:29:21;6.50;99.90
59301;DHT22;45073;52.740;6.784;2023-12-14T11:31:48;6.50;99.90
59301;DHT22;45073;52.740;6.784;2023-12-14T11:34:16;6.50;99.90
59301;DHT22;45073;52.740;6.784;2023-12-14T11:36:42;6.50;99.90
59301;DHT22;45073;52.740;6.784;2023-12-14T11:39:09;6.40;99.90
59301;DHT22;45073;52.740;6.784;2023-12-14T11:41:35;6.40;99.90
59301;DHT22;45073;52.740;6.784;2023-12-14T11:44:02;6.30;99.90
59301;DHT22;45073;52.740;6.784;2023-12-14T11:46:29;6.30;99.90
59301;DHT22;45073;52.740;6.784;2023-12-14T11:48:56;6.30;99.90
59301;DHT22;45073;52.740;6.784;2023-12-14T11:51:22;6.30;99.90
59301;DHT22;45073;52.740;6.784;2023-12-14T11:53:49;6.30;99.90
59301;DHT22;45073;52.740;6.784;2023-12-14T11:56:17;6.30;99.90
59301;DHT22;45073;52.740;6.784;2023-12-14T11:58:44;6.30;99.90
59301;DHT22;45073;52.740;6.784;2023-12-14T12:01:20;6.30;99.90
59301;DHT22;45073;52.740;6.784;2023-12-14T12:03:50;6.30;99.90
59301;DHT22;45073;52.740;6.784;2023-12-14T12:06:26;6.20;99.90
59301;DHT22;45073;52.740;6.784;2023-12-14T12:08:55;6.20;99.90
59301;DHT22;45073;52.740;6.784;2023-12-14T12:11:22;6.20;99.90
59301;DHT22;45073;52.740;6.784;2023-12-14T12:13:52;6.20;99.90
59301;DHT22;45073;52.740;6.784;2023-12-14T12:16:18;6.20;99.90
59301;DHT22;45073;52.740;6.784;2023-12-14T12:18:44;6.10;99.90
59301;DHT22;45073;52.740;6.784;2023-12-14T12:21:11;6.10;99.90
59301;DHT22;45073;52.740;6.784;2023-12-14T12:23:36;6.10;99.90
59301;DHT22;45073;52.740;6.784;2023-12-14T12:26:02;6.10;99.90
59301;DHT22;45073;52.740;6.784;2023-12-14T12:28:30;6.10;99.90
59301;DHT22;45073;52.740;6.784;2023-12-14T12:30:55;6.10;99.90
59301;DHT22;45073;52.740;6.784;2023-12-14T12:33:21;6.10;99.90
59301;DHT22;45073;52.740;6.784;2023-12-14T12:35:47;6.10;99.90
59301;DHT22;45073;52.740;6.784;2023-12-14T12:38:12;6.10;99.90
59301;DHT22;45073;52.740;6.784;2023-12-14T12:40:38;6.10;99.90
59301;DHT22;45073;52.740;6.784;2023-12-14T12:43:05;6.10;99.90
59301;DHT22;45073;52.740;6.784;2023-12-14T12:45:30;6.10;99.90
59301;DHT22;45073;52.740;6.784;2023-12-14T12:47:57;6.20;99.90
59301;DHT22;45073;52.740;6.784;2023-12-14T12:50:23;6.20;99.90
59301;DHT22;45073;52.740;6.784;2023-12-14T12:52:49;6.20;99.90
59301;DHT22;45073;52.740;6.784;2023-12-14T12:55:15;6.20;99.90
59301;DHT22;45073;52.740;6.784;2023-12-14T12:57:41;6.20;99.90
59301;DHT22;45073;52.740;6.784;2023-12-14T13:00:08;6.30;99.90
59301;DHT22;45073;52.740;6.784;2023-12-14T13:02:43;6.30;99.90
59301;DHT22;45073;52.740;6.784;2023-12-14T13:05:10;6.30;99.90
59301;DHT22;45073;52.740;6.784;2023-12-14T13:07:37;6.30;99.90
59301;DHT22;45073;52.740;6.784;2023-12-14T13:10:06;6.30;99.90
59301;DHT22;45073;52.740;6.784;2023-12-14T13:12:32;6.30;99.90
59301;DHT22;45073;52.740;6.784;2023-12-14T13:14:59;6.30;99.90
59301;DHT22;45073;52.740;6.784;2023-12-14T13:17:25;6.30;99.90
59301;DHT22;45073;52.740;6.784;2023-12-14T13:19:51;6.30;99.90
59301;DHT22;45073;52.740;6.784;2023-12-14T13:22:17;6.30;99.90
59301;DHT22;45073;52.740;6.784;2023-12-14T13:24:42;6.30;99.90
59301;DHT22;45073;52.740;6.784;2023-12-14T13:27:08;6.30;99.90
59301;DHT22;45073;52.740;6.784;2023-12-14T13:29:34;6.30;99.90
59301;DHT22;45073;52.740;6.784;2023-12-14T13:32:01;6.30;99.90
59301;DHT22;45073;52.740;6.784;2023-12-14T13:34:27;6.30;99.90
59301;DHT22;45073;52.740;6.784;2023-12-14T13:36:59;6.30;99.90
59301;DHT22;45073;52.740;6.784;2023-12-14T13:39:26;6.20;99.90
59301;DHT22;45073;52.740;6.784;2023-12-14T13:41:52;6.30;99.90
59301;DHT22;45073;52.740;6.784;2023-12-14T13:44:18;6.20;99.90
59301;DHT22;45073;52.740;6.784;2023-12-14T13:46:44;6.30;99.90
59301;DHT22;45073;52.740;6.784;2023-12-14T13:49:09;6.30;99.90
59301;DHT22;45073;52.740;6.784;2023-12-14T13:51:35;6.30;99.90
59301;DHT22;45073;52.740;6.784;2023-12-14T13:54:01;6.30;99.90
59301;DHT22;45073;52.740;6.784;2023-12-14T13:56:26;6.30;99.90
59301;DHT22;45073;52.740;6.784;2023-12-14T13:58:53;6.30;99.90
59301;DHT22;45073;52.740;6.784;2023-12-14T14:01:18;6.30;99.90
59301;DHT22;45073;52.740;6.784;2023-12-14T14:03:44;6.30;99.90
59301;DHT22;45073;52.740;6.784;2023-12-14T14:06:12;6.30;99.90
59301;DHT22;45073;52.740;6.784;2023-12-14T14:08:38;6.20;99.90
59301;DHT22;45073;52.740;6.784;2023-12-14T14:11:04;6.20;99.90
59301;DHT22;45073;52.740;6.784;2023-12-14T14:13:29;6.20;99.90
59301;DHT22;45073;52.740;6.784;2023-12-14T14:15:55;6.20;99.90
59301;DHT22;45073;52.740;6.784;2023-12-14T14:18:21;6.20;99.90
59301;DHT22;45073;52.740;6.784;2023-12-14T14:20:47;6.20;99.90
59301;DHT22;45073;52.740;6.784;2023-12-14T14:23:25;6.10;99.90
59301;DHT22;45073;52.740;6.784;2023-12-14T14:25:54;6.10;99.90
59301;DHT22;45073;52.740;6.784;2023-12-14T14:28:21;6.10;99.90
59301;DHT22;45073;52.740;6.784;2023-12-14T14:30:47;6.10;99.90
59301;DHT22;45073;52.740;6.784;2023-12-14T14:33:14;6.10;99.90
59301;DHT22;45073;52.740;6.784;2023-12-14T14:35:44;6.00;99.90
59301;DHT22;45073;52.740;6.784;2023-12-14T14:38:11;6.00;99.90
59301;DHT22;45073;52.740;6.784;2023-12-14T14:40:37;6.00;99.90
59301;DHT22;45073;52.740;6.784;2023-12-14T14:43:03;6.00;99.90
59301;DHT22;45073;52.740;6.784;2023-12-14T14:45:29;5.90;99.90
59301;DHT22;45073;52.740;6.784;2023-12-14T14:47:55;6.00;99.90
59301;DHT22;45073;52.740;6.784;2023-12-14T14:50:21;6.10;99.90
59301;DHT22;45073;52.740;6.784;2023-12-14T14:52:47;6.20;99.90
59301;DHT22;45073;52.740;6.784;2023-12-14T14:55:13;6.30;99.90
59301;DHT22;45073;52.740;6.784;2023-12-14T14:57:39;6.30;99.90
59301;DHT22;45073;52.740;6.784;2023-12-14T15:00:06;6.30;99.90
59301;DHT22;45073;52.740;6.784;2023-12-14T15:02:31;6.40;99.90
59301;DHT22;45073;52.740;6.784;2023-12-14T15:04:57;6.40;99.90
59301;DHT22;45073;52.740;6.784;2023-12-14T15:07:23;6.40;99.90
59301;DHT22;45073;52.740;6.784;2023-12-14T15:09:48;6.30;99.90
59301;DHT22;45073;52.740;6.784;2023-12-14T15:12:14;6.30;99.90
59301;DHT22;45073;52.740;6.784;2023-12-14T15:14:40;6.30;99.90
59301;DHT22;45073;52.740;6.784;2023-12-14T15:17:05;6.30;99.90
59301;DHT22;45073;52.740;6.784;2023-12-14T15:19:31;6.30;99.90
59301;DHT22;45073;52.740;6.784;2023-12-14T15:21:56;6.20;99.90
59301;DHT22;45073;52.740;6.784;2023-12-14T15:24:22;6.10;99.90
59301;DHT22;45073;52.740;6.784;2023-12-14T15:26:48;6.00;99.90
59301;DHT22;45073;52.740;6.784;2023-12-14T15:29:15;6.00;99.90
59301;DHT22;45073;52.740;6.784;2023-12-14T15:31:41;5.90;99.90
59301;DHT22;45073;52.740;6.784;2023-12-14T15:34:07;5.80;99.90
59301;DHT22;45073;52.740;6.784;2023-12-14T15:36:33;5.80;99.90
59301;DHT22;45073;52.740;6.784;2023-12-14T15:39:02;5.70;99.90
59301;DHT22;45073;52.740;6.784;2023-12-14T15:41:28;5.60;99.90
59301;DHT22;45073;52.740;6.784;2023-12-14T15:43:54;5.60;99.90
59301;DHT22;45073;52.740;6.784;2023-12-14T15:46:20;5.50;99.90
59301;DHT22;45073;52.740;6.784;2023-12-14T15:48:46;5.50;99.90
59301;DHT22;45073;52.740;6.784;2023-12-14T15:51:12;5.40;99.90